Time;durP1;ratioP1;P1;durP2;ratioP2;P2;SDS_P1;SDS_P2;PMS_P1;PMS_P2;Temp;Humidity;BMP_temperature;BMP_pressure;BME280_temperature;BME280_humidity;BME280_pressure;Samples;Min_cycle;Max_cycle;Signal;HPM_P1;HPM_P2
2023/06/24 00:02:20;;;;;;;2.90;2.70;;;;;;;;;;5076895;28;20219;-75
2023/06/24 00:04:49;;;;;;;3.03;2.83;;;;;;;;;;5082525;28;20202;-75
2023/06/24 00:07:16;;;;;;;3.03;2.83;;;;;;;;;;5078717;28;20209;-75
2023/06/24 00:09:43;;;;;;;2.63;2.53;;;;;;;;;;5077689;28;20198;-75
2023/06/24 00:12:10;;;;;;;2.85;2.65;;;;;;;;;;5071970;28;20206;-75
2023/06/24 00:14:38;;;;;;;2.80;2.60;;;;;;;;;;5080415;28;20217;-74
2023/06/24 00:17:07;;;;;;;3.22;2.97;;;;;;;;;;5080133;28;20321;-75
2023/06/24 00:19:34;;;;;;;3.20;2.90;;;;;;;;;;5078041;28;20202;-74
2023/06/24 00:22:03;;;;;;;3.20;2.90;;;;;;;;;;5076096;28;20191;-74
2023/06/24 00:24:30;;;;;;;3.53;3.22;;;;;;;;;;5079007;28;20206;-75
2023/06/24 00:26:57;;;;;;;3.10;2.90;;;;;;;;;;5076550;28;20356;-74
2023/06/24 00:29:25;;;;;;;3.40;2.92;;;;;;;;;;5071620;28;20210;-74
2023/06/24 00:31:52;;;;;;;3.10;2.90;;;;;;;;;;5079085;28;20222;-74
2023/06/24 00:34:20;;;;;;;3.22;3.03;;;;;;;;;;5080486;28;20201;-74
2023/06/24 00:36:47;;;;;;;3.40;3.20;;;;;;;;;;5075291;28;20206;-73
2023/06/24 00:39:16;;;;;;;3.38;3.08;;;;;;;;;;5077140;28;20289;-74
2023/06/24 00:41:44;;;;;;;3.22;2.92;;;;;;;;;;5076106;28;20210;-74
2023/06/24 00:44:11;;;;;;;3.75;3.30;;;;;;;;;;5077987;28;20650;-74
2023/06/24 00:46:39;;;;;;;3.60;3.30;;;;;;;;;;5078012;28;20305;-74
2023/06/24 00:49:07;;;;;;;3.10;2.90;;;;;;;;;;5077809;28;20201;-74
2023/06/24 00:51:36;;;;;;;3.38;3.08;;;;;;;;;;5079299;28;20222;-74
2023/06/24 00:54:04;;;;;;;3.25;3.03;;;;;;;;;;5079030;28;20217;-74
2023/06/24 00:56:33;;;;;;;3.38;3.17;;;;;;;;;;5073459;28;20206;-74
2023/06/24 00:59:01;;;;;;;3.28;3.05;;;;;;;;;;5079886;28;20202;-74
2023/06/24 01:01:31;;;;;;;3.30;3.00;;;;;;;;;;5079085;28;20202;-67
2023/06/24 01:03:59;;;;;;;3.30;3.10;;;;;;;;;;5079134;28;20229;-67
2023/06/24 01:06:28;;;;;;;3.97;3.25;;;;;;;;;;5074476;28;20218;-67
2023/06/24 01:08:56;;;;;;;4.28;3.20;;;;;;;;;;5072153;28;20203;-67
2023/06/24 01:11:23;;;;;;;3.50;3.20;;;;;;;;;;5077676;28;20203;-68
2023/06/24 01:13:52;;;;;;;3.75;3.30;;;;;;;;;;5077953;28;20223;-68
2023/06/24 01:16:24;;;;;;;3.22;3.00;;;;;;;;;;5071000;28;20202;-68
2023/06/24 01:18:55;;;;;;;3.50;3.20;;;;;;;;;;5074931;28;20213;-68
2023/06/24 01:21:30;;;;;;;3.50;3.08;;;;;;;;;;5073749;28;20202;-68
2023/06/24 01:24:05;;;;;;;3.35;3.05;;;;;;;;;;5078991;28;20218;-67
2023/06/24 01:26:42;;;;;;;3.40;3.10;;;;;;;;;;5071041;28;20280;-68
2023/06/24 01:29:31;;;;;;;3.20;3.00;;;;;;;;;;5078250;28;20250;-68
2023/06/24 01:32:01;;;;;;;3.72;3.42;;;;;;;;;;5076626;28;20226;-68
2023/06/24 01:34:31;;;;;;;3.00;2.80;;;;;;;;;;5074900;28;20218;-68
2023/06/24 01:37:06;;;;;;;3.55;3.28;;;;;;;;;;5078878;28;20203;-68
2023/06/24 01:39:36;;;;;;;3.65;3.35;;;;;;;;;;5075031;28;20212;-69
2023/06/24 01:42:08;;;;;;;4.65;3.35;;;;;;;;;;5079191;28;20207;-68
2023/06/24 01:44:36;;;;;;;3.33;3.03;;;;;;;;;;5073020;28;20229;-68
2023/06/24 01:47:06;;;;;;;4.03;3.60;;;;;;;;;;5073045;28;20231;-69
2023/06/24 01:49:34;;;;;;;3.58;3.38;;;;;;;;;;5078959;28;20194;-69
2023/06/24 01:52:01;;;;;;;3.80;3.50;;;;;;;;;;5071640;28;20202;-68
2023/06/24 01:54:29;;;;;;;2.97;2.78;;;;;;;;;;5074538;28;20202;-69
2023/06/24 01:56:58;;;;;;;3.38;3.08;;;;;;;;;;5074399;28;20222;-69
2023/06/24 01:59:26;;;;;;;3.85;3.55;;;;;;;;;;5079142;28;20214;-69
2023/06/24 02:01:54;;;;;;;3.28;2.97;;;;;;;;;;5076662;28;20202;-69
2023/06/24 02:04:23;;;;;;;3.63;3.42;;;;;;;;;;5079220;28;20214;-69
2023/06/24 02:06:51;;;;;;;3.97;3.67;;;;;;;;;;5077838;28;20217;-68
2023/06/24 02:09:19;;;;;;;3.75;3.10;;;;;;;;;;5074662;28;20211;-68
2023/06/24 02:11:47;;;;;;;4.40;2.92;;;;;;;;;;5073973;28;20207;-68
2023/06/24 02:14:15;;;;;;;4.10;3.70;;;;;;;;;;5079045;28;20214;-68
2023/06/24 02:16:43;;;;;;;4.05;3.75;;;;;;;;;;5069458;28;20210;-68
2023/06/24 02:19:11;;;;;;;4.15;3.60;;;;;;;;;;5078143;28;20213;-68
2023/06/24 02:21:41;;;;;;;3.75;3.45;;;;;;;;;;5076333;28;20203;-68
2023/06/24 02:24:08;;;;;;;3.60;3.30;;;;;;;;;;5072156;28;20229;-68
2023/06/24 02:26:40;;;;;;;3.72;3.40;;;;;;;;;;5074538;28;20205;-68
2023/06/24 02:29:08;;;;;;;3.67;3.47;;;;;;;;;;5077371;28;20224;-69
2023/06/24 02:31:35;;;;;;;5.25;3.90;;;;;;;;;;5068910;28;20237;-68
2023/06/24 02:34:03;;;;;;;3.78;3.13;;;;;;;;;;5068768;28;20210;-68
2023/06/24 02:36:30;;;;;;;4.00;3.70;;;;;;;;;;5078614;28;20203;-69
2023/06/24 02:38:58;;;;;;;3.45;3.15;;;;;;;;;;5077025;28;20312;-68
2023/06/24 02:41:25;;;;;;;4.35;3.63;;;;;;;;;;5077101;28;20209;-68
2023/06/24 02:43:53;;;;;;;3.67;3.45;;;;;;;;;;5075679;28;20230;-68
2023/06/24 02:46:20;;;;;;;4.00;3.60;;;;;;;;;;5074524;28;20203;-69
2023/06/24 02:48:48;;;;;;;3.40;3.20;;;;;;;;;;5075197;28;20202;-68
2023/06/24 02:51:16;;;;;;;4.07;3.50;;;;;;;;;;5077917;28;20206;-68
2023/06/24 02:53:44;;;;;;;3.72;3.42;;;;;;;;;;5074544;28;20202;-68
2023/06/24 02:56:14;;;;;;;4.00;3.47;;;;;;;;;;5078225;28;20199;-68
2023/06/24 02:58:41;;;;;;;4.00;3.60;;;;;;;;;;5072614;28;20202;-68
2023/06/24 03:01:08;;;;;;;4.82;3.72;;;;;;;;;;5074032;28;20218;-69
2023/06/24 03:03:36;;;;;;;3.67;3.38;;;;;;;;;;5076025;28;20219;-69
2023/06/24 03:06:03;;;;;;;4.43;3.80;;;;;;;;;;5079894;28;20209;-69
2023/06/24 03:08:31;;;;;;;3.90;3.60;;;;;;;;;;5077274;28;20225;-68
2023/06/24 03:10:58;;;;;;;4.10;3.60;;;;;;;;;;5077271;28;20208;-69
2023/06/24 03:13:27;;;;;;;4.25;3.30;;;;;;;;;;5079028;28;20202;-69
2023/06/24 03:15:54;;;;;;;3.65;3.33;;;;;;;;;;5075550;28;20213;-73
2023/06/24 03:18:22;;;;;;;3.42;3.20;;;;;;;;;;5071383;28;20213;-74
2023/06/24 03:20:49;;;;;;;3.95;3.65;;;;;;;;;;5073872;28;20203;-73
2023/06/24 03:23:16;;;;;;;4.38;3.42;;;;;;;;;;5080169;28;20206;-73
2023/06/24 03:25:43;;;;;;;4.25;3.85;;;;;;;;;;5074135;28;20225;-73
2023/06/24 03:28:10;;;;;;;4.25;3.40;;;;;;;;;;5069243;28;20210;-73
2023/06/24 03:30:39;;;;;;;3.90;3.60;;;;;;;;;;5075204;28;20207;-73
2023/06/24 03:33:06;;;;;;;4.57;3.40;;;;;;;;;;5078225;28;20226;-72
2023/06/24 03:35:34;;;;;;;3.85;3.45;;;;;;;;;;5077836;28;20210;-73
2023/06/24 03:38:01;;;;;;;4.13;3.70;;;;;;;;;;5073344;28;20207;-73
2023/06/24 03:40:28;;;;;;;3.42;3.22;;;;;;;;;;5073118;28;20199;-73
2023/06/24 03:42:55;;;;;;;3.65;3.35;;;;;;;;;;5077307;28;20225;-73
2023/06/24 03:45:22;;;;;;;5.68;3.80;;;;;;;;;;5080842;28;20226;-73
2023/06/24 03:47:51;;;;;;;3.70;3.40;;;;;;;;;;5080150;28;20209;-73
2023/06/24 03:50:18;;;;;;;3.88;3.30;;;;;;;;;;5072216;28;20209;-73
2023/06/24 03:52:45;;;;;;;3.97;3.60;;;;;;;;;;5075484;28;20229;-73
2023/06/24 03:55:12;;;;;;;4.28;3.78;;;;;;;;;;5072689;28;20190;-73
2023/06/24 03:57:39;;;;;;;3.95;3.65;;;;;;;;;;5076297;28;20195;-73
2023/06/24 04:00:14;;;;;;;3.97;3.35;;;;;;;;;;5076617;28;20202;-73
2023/06/24 04:02:41;;;;;;;4.20;3.90;;;;;;;;;;5077601;28;20194;-74
2023/06/24 04:05:11;;;;;;;5.63;3.70;;;;;;;;;;5079267;28;20238;-72
2023/06/24 04:07:38;;;;;;;3.53;3.20;;;;;;;;;;5076246;28;20213;-73
2023/06/24 04:10:08;;;;;;;3.45;3.25;;;;;;;;;;5077846;28;20202;-73
2023/06/24 04:12:35;;;;;;;3.90;3.35;;;;;;;;;;5079838;28;20199;-74
2023/06/24 04:15:04;;;;;;;3.35;3.15;;;;;;;;;;5076841;28;20199;-73
2023/06/24 04:17:31;;;;;;;4.13;3.83;;;;;;;;;;5072127;28;20286;-73
2023/06/24 04:19:58;;;;;;;5.28;3.78;;;;;;;;;;5074885;28;20198;-73
2023/06/24 04:22:27;;;;;;;3.67;3.40;;;;;;;;;;5077379;28;20203;-73
2023/06/24 04:24:54;;;;;;;3.33;3.03;;;;;;;;;;5074088;28;20223;-73
2023/06/24 04:27:21;;;;;;;3.85;3.47;;;;;;;;;;5077263;28;20213;-73
2023/06/24 04:29:49;;;;;;;3.80;3.50;;;;;;;;;;5072528;28;20206;-72
2023/06/24 04:32:16;;;;;;;3.70;3.40;;;;;;;;;;5079264;28;20242;-73
2023/06/24 04:34:43;;;;;;;3.70;3.40;;;;;;;;;;5071270;28;20202;-73
2023/06/24 04:37:10;;;;;;;3.47;3.28;;;;;;;;;;5079901;28;20206;-73
2023/06/24 04:39:38;;;;;;;3.70;3.40;;;;;;;;;;5079087;28;20217;-72
2023/06/24 04:42:06;;;;;;;4.07;3.78;;;;;;;;;;5079175;28;20206;-73
2023/06/24 04:44:33;;;;;;;3.97;3.60;;;;;;;;;;5081187;28;20218;-73
2023/06/24 04:47:00;;;;;;;4.75;4.22;;;;;;;;;;5078821;28;20207;-73
2023/06/24 04:49:27;;;;;;;4.55;4.15;;;;;;;;;;5077585;28;20229;-73
2023/06/24 04:51:55;;;;;;;4.00;3.70;;;;;;;;;;5078550;28;20194;-73
2023/06/24 04:54:22;;;;;;;4.63;3.70;;;;;;;;;;5081151;28;20203;-72
2023/06/24 04:56:52;;;;;;;4.15;3.72;;;;;;;;;;5077527;28;20208;-72
2023/06/24 04:59:19;;;;;;;3.78;3.53;;;;;;;;;;5076773;28;20290;-72
2023/06/24 05:01:46;;;;;;;3.97;3.67;;;;;;;;;;5077525;28;20202;-72
2023/06/24 05:04:13;;;;;;;5.10;3.50;;;;;;;;;;5075690;28;20218;-72
2023/06/24 05:06:41;;;;;;;3.75;3.33;;;;;;;;;;5072380;28;20206;-72
2023/06/24 05:09:08;;;;;;;4.30;3.92;;;;;;;;;;5072345;28;20210;-72
2023/06/24 05:11:35;;;;;;;4.25;3.95;;;;;;;;;;5077659;28;20217;-72
2023/06/24 05:14:04;;;;;;;4.53;4.22;;;;;;;;;;5071413;28;20194;-73
2023/06/24 05:16:31;;;;;;;4.80;4.38;;;;;;;;;;5080367;28;20216;-73
2023/06/24 05:18:58;;;;;;;3.30;3.10;;;;;;;;;;5077778;28;20211;-73
2023/06/24 05:21:25;;;;;;;3.95;3.63;;;;;;;;;;5078445;28;20209;-72
2023/06/24 05:23:52;;;;;;;4.43;4.03;;;;;;;;;;5076148;28;20203;-72
2023/06/24 05:26:20;;;;;;;3.60;3.30;;;;;;;;;;5077573;28;20206;-73
2023/06/24 05:28:47;;;;;;;3.28;3.08;;;;;;;;;;5074384;28;20206;-73
2023/06/24 05:31:15;;;;;;;4.00;3.70;;;;;;;;;;5075306;28;20203;-72
2023/06/24 05:33:42;;;;;;;6.03;4.00;;;;;;;;;;5080425;28;20206;-73
2023/06/24 05:36:10;;;;;;;3.95;3.58;;;;;;;;;;5078787;28;20295;-74
2023/06/24 05:38:37;;;;;;;3.53;3.33;;;;;;;;;;5078521;28;20203;-74
2023/06/24 05:41:04;;;;;;;4.88;3.70;;;;;;;;;;5077035;28;20199;-74
2023/06/24 05:43:31;;;;;;;5.38;4.20;;;;;;;;;;5075512;28;20229;-74
2023/06/24 05:45:58;;;;;;;6.70;3.90;;;;;;;;;;5074126;28;20230;-74
2023/06/24 05:48:27;;;;;;;3.67;3.28;;;;;;;;;;5077290;28;20207;-74
2023/06/24 05:50:54;;;;;;;4.30;3.63;;;;;;;;;;5081266;28;20202;-74
2023/06/24 05:53:21;;;;;;;4.03;3.65;;;;;;;;;;5076956;28;20214;-74
2023/06/24 05:55:48;;;;;;;3.40;3.20;;;;;;;;;;5074527;28;20203;-74
2023/06/24 05:58:15;;;;;;;4.35;4.03;;;;;;;;;;5083208;28;20206;-75
2023/06/24 06:00:42;;;;;;;4.38;3.97;;;;;;;;;;5079970;28;20213;-75
2023/06/24 06:03:10;;;;;;;4.22;3.92;;;;;;;;;;5077197;28;20209;-75
2023/06/24 06:05:39;;;;;;;5.20;4.63;;;;;;;;;;5081642;28;20226;-75
2023/06/24 06:08:06;;;;;;;5.43;4.30;;;;;;;;;;5075531;28;20214;-75
2023/06/24 06:10:33;;;;;;;4.50;4.10;;;;;;;;;;5076729;28;20198;-75
2023/06/24 06:13:00;;;;;;;3.92;3.63;;;;;;;;;;5077644;28;20203;-75
2023/06/24 06:15:27;;;;;;;4.43;4.00;;;;;;;;;;5071422;28;20195;-75
2023/06/24 06:17:54;;;;;;;4.47;4.18;;;;;;;;;;5074281;28;20210;-75
2023/06/24 06:20:21;;;;;;;4.15;3.65;;;;;;;;;;5074542;28;20202;-75
2023/06/24 06:22:51;;;;;;;3.97;3.67;;;;;;;;;;5083314;28;20210;-75
2023/06/24 06:25:18;;;;;;;4.22;3.53;;;;;;;;;;5075171;28;20230;-75
2023/06/24 06:27:45;;;;;;;4.13;3.83;;;;;;;;;;5082596;28;20201;-75
2023/06/24 06:30:13;;;;;;;3.80;3.42;;;;;;;;;;5078746;28;20202;-75
2023/06/24 06:32:40;;;;;;;3.30;3.00;;;;;;;;;;5072012;28;20234;-75
2023/06/24 06:35:08;;;;;;;3.95;3.65;;;;;;;;;;5076524;28;20191;-75
2023/06/24 06:37:36;;;;;;;4.00;3.70;;;;;;;;;;5069973;28;20199;-75
2023/06/24 06:40:04;;;;;;;3.92;3.40;;;;;;;;;;5074253;28;20199;-75
2023/06/24 06:42:32;;;;;;;3.92;3.63;;;;;;;;;;5065960;28;20218;-75
2023/06/24 06:44:59;;;;;;;3.63;3.20;;;;;;;;;;5071035;28;20214;-75
2023/06/24 06:47:26;;;;;;;4.75;4.13;;;;;;;;;;5074171;28;20207;-75
2023/06/24 06:49:53;;;;;;;4.03;3.60;;;;;;;;;;5081733;28;20201;-75
2023/06/24 06:52:20;;;;;;;4.55;4.15;;;;;;;;;;5074077;28;20194;-75
2023/06/24 06:54:47;;;;;;;4.30;3.97;;;;;;;;;;5069575;28;20198;-75
2023/06/24 06:57:16;;;;;;;4.88;3.60;;;;;;;;;;5069473;28;20202;-76
2023/06/24 06:59:43;;;;;;;4.75;4.10;;;;;;;;;;5074211;28;20221;-75
2023/06/24 07:02:10;;;;;;;4.10;3.78;;;;;;;;;;5075345;28;20209;-75
2023/06/24 07:04:37;;;;;;;5.05;3.72;;;;;;;;;;5073852;28;20221;-75
2023/06/24 07:07:05;;;;;;;4.03;3.70;;;;;;;;;;5067212;28;20202;-75
2023/06/24 07:09:32;;;;;;;4.22;3.83;;;;;;;;;;5071027;28;20297;-69
2023/06/24 07:11:59;;;;;;;4.25;3.88;;;;;;;;;;5071570;28;20213;-70
2023/06/24 07:14:28;;;;;;;5.28;4.88;;;;;;;;;;5071805;28;20202;-70
2023/06/24 07:16:55;;;;;;;5.38;4.47;;;;;;;;;;5075810;28;20194;-69
2023/06/24 07:19:22;;;;;;;5.22;4.50;;;;;;;;;;5069978;28;20217;-69
2023/06/24 07:21:49;;;;;;;4.35;4.00;;;;;;;;;;5073971;28;20198;-69
2023/06/24 07:24:16;;;;;;;6.30;4.75;;;;;;;;;;5069375;28;20206;-69
2023/06/24 07:26:43;;;;;;;8.75;4.13;;;;;;;;;;5067474;28;20218;-69
2023/06/24 07:29:10;;;;;;;11.48;5.00;;;;;;;;;;5075648;28;20202;-70
2023/06/24 07:31:39;;;;;;;5.85;4.05;;;;;;;;;;5065421;28;20242;-69
2023/06/24 07:34:06;;;;;;;9.63;4.50;;;;;;;;;;5074463;28;20202;-69
2023/06/24 07:36:33;;;;;;;5.05;4.60;;;;;;;;;;5073261;28;20209;-69
2023/06/24 07:39:00;;;;;;;4.93;4.07;;;;;;;;;;5074778;28;20221;-70
2023/06/24 07:41:28;;;;;;;5.55;4.40;;;;;;;;;;5072380;28;20207;-71
2023/06/24 07:43:55;;;;;;;4.82;4.10;;;;;;;;;;5070784;28;20202;-70
2023/06/24 07:46:22;;;;;;;6.40;5.05;;;;;;;;;;5069215;28;20225;-70
2023/06/24 07:48:58;;;;;;;4.70;4.10;;;;;;;;;;5073090;28;20206;-69
2023/06/24 07:51:26;;;;;;;4.25;3.88;;;;;;;;;;5072526;28;20198;-68
2023/06/24 07:53:53;;;;;;;6.70;4.70;;;;;;;;;;5076895;28;20203;-68
2023/06/24 07:56:20;;;;;;;4.70;4.30;;;;;;;;;;5074454;28;20199;-67
2023/06/24 07:58:47;;;;;;;4.03;3.70;;;;;;;;;;5072301;28;20202;-67
2023/06/24 08:01:14;;;;;;;4.18;3.78;;;;;;;;;;5069945;28;20203;-69
2023/06/24 08:03:42;;;;;;;4.55;3.70;;;;;;;;;;5070175;28;20206;-68
2023/06/24 08:06:10;;;;;;;4.82;3.80;;;;;;;;;;5070712;28;20221;-68
2023/06/24 08:08:37;;;;;;;4.82;3.50;;;;;;;;;;5076396;28;20198;-70
2023/06/24 08:11:04;;;;;;;5.07;4.40;;;;;;;;;;5072082;28;20233;-69
2023/06/24 08:13:31;;;;;;;5.18;4.75;;;;;;;;;;5072647;28;20203;-70
2023/06/24 08:15:59;;;;;;;4.10;3.80;;;;;;;;;;5074866;28;20203;-72
2023/06/24 08:18:26;;;;;;;5.22;4.40;;;;;;;;;;5073905;28;20238;-71
2023/06/24 08:20:53;;;;;;;3.58;3.28;;;;;;;;;;5078466;28;20199;-70
2023/06/24 08:23:22;;;;;;;6.65;4.38;;;;;;;;;;5071676;28;20217;-70
2023/06/24 08:25:49;;;;;;;5.68;4.10;;;;;;;;;;5069971;28;20218;-70
2023/06/24 08:28:16;;;;;;;5.15;4.03;;;;;;;;;;5071831;28;20203;-70
2023/06/24 08:30:43;;;;;;;6.18;4.43;;;;;;;;;;5075744;28;20210;-70
2023/06/24 08:33:10;;;;;;;5.32;4.75;;;;;;;;;;5068752;28;20249;-69
2023/06/24 08:35:38;;;;;;;6.68;5.00;;;;;;;;;;5073452;28;20206;-70
2023/06/24 08:38:05;;;;;;;6.63;4.43;;;;;;;;;;5077217;28;20212;-70
2023/06/24 08:40:33;;;;;;;5.15;4.20;;;;;;;;;;5072617;28;20213;-73
2023/06/24 08:43:00;;;;;;;5.18;4.50;;;;;;;;;;5071863;28;20211;-72
2023/06/24 08:45:28;;;;;;;4.15;3.85;;;;;;;;;;5074201;28;20221;-63
2023/06/24 08:47:56;;;;;;;3.38;3.08;;;;;;;;;;5077741;28;20202;-63
2023/06/24 08:50:24;;;;;;;4.22;3.83;;;;;;;;;;5072225;28;20271;-63
2023/06/24 08:52:52;;;;;;;4.53;4.10;;;;;;;;;;5075369;28;20210;-63
2023/06/24 08:55:21;;;;;;;3.53;3.22;;;;;;;;;;5075930;28;20596;-63
2023/06/24 08:57:49;;;;;;;4.55;3.85;;;;;;;;;;5072279;28;20198;-63
2023/06/24 09:00:17;;;;;;;4.65;4.25;;;;;;;;;;5074436;28;20201;-62
2023/06/24 09:02:45;;;;;;;3.58;3.28;;;;;;;;;;5073466;28;20211;-63
2023/06/24 09:05:12;;;;;;;3.90;3.50;;;;;;;;;;5069387;28;20207;-65
2023/06/24 09:07:39;;;;;;;5.85;3.45;;;;;;;;;;5066937;28;20199;-65
2023/06/24 09:10:07;;;;;;;3.95;3.40;;;;;;;;;;5080087;28;20213;-65
2023/06/24 09:12:34;;;;;;;4.43;3.67;;;;;;;;;;5075670;28;20210;-65
2023/06/24 09:15:04;;;;;;;3.85;3.55;;;;;;;;;;5074816;28;20206;-65
2023/06/24 09:17:31;;;;;;;2.90;2.63;;;;;;;;;;5075402;28;20206;-65
2023/06/24 09:20:05;;;;;;;5.05;3.05;;;;;;;;;;5075047;28;20284;-65
2023/06/24 09:22:32;;;;;;;4.72;3.50;;;;;;;;;;5078045;28;20203;-65
2023/06/24 09:25:02;;;;;;;3.80;3.00;;;;;;;;;;5070374;28;20235;-65
2023/06/24 09:27:32;;;;;;;3.75;3.30;;;;;;;;;;5064888;28;20195;-66
2023/06/24 09:29:59;;;;;;;4.68;3.63;;;;;;;;;;5066123;28;20225;-63
2023/06/24 09:32:31;;;;;;;2.63;2.40;;;;;;;;;;5070513;28;20238;-74
2023/06/24 09:34:58;;;;;;;2.60;2.40;;;;;;;;;;5074802;28;20195;-74
2023/06/24 09:37:30;;;;;;;2.60;2.40;;;;;;;;;;5075452;28;20209;-74
2023/06/24 09:39:58;;;;;;;3.35;3.05;;;;;;;;;;5077413;28;20198;-74
2023/06/24 09:42:25;;;;;;;3.00;2.80;;;;;;;;;;5077591;28;20211;-74
2023/06/24 09:44:55;;;;;;;3.50;3.20;;;;;;;;;;5078756;28;20214;-75
2023/06/24 09:47:24;;;;;;;3.65;3.10;;;;;;;;;;5077490;28;20226;-74
2023/06/24 09:49:53;;;;;;;4.95;3.30;;;;;;;;;;5074104;28;20237;-74
2023/06/24 09:52:21;;;;;;;3.28;2.97;;;;;;;;;;5078621;28;20195;-74
2023/06/24 09:54:51;;;;;;;3.30;3.00;;;;;;;;;;5081247;28;20198;-74
2023/06/24 09:57:19;;;;;;;4.15;2.85;;;;;;;;;;5071348;28;20194;-74
2023/06/24 09:59:47;;;;;;;6.30;3.30;;;;;;;;;;5079523;28;20218;-74
2023/06/24 10:02:16;;;;;;;6.07;3.30;;;;;;;;;;5075645;28;20209;-72
2023/06/24 10:04:43;;;;;;;3.78;3.30;;;;;;;;;;5078503;28;20205;-72
2023/06/24 10:07:12;;;;;;;4.05;3.42;;;;;;;;;;5073235;28;20226;-71
2023/06/24 10:09:40;;;;;;;3.20;2.90;;;;;;;;;;5074561;28;20202;-71
2023/06/24 10:12:07;;;;;;;3.47;3.20;;;;;;;;;;5070928;28;20221;-70
2023/06/24 10:14:34;;;;;;;3.05;2.85;;;;;;;;;;5072300;28;20271;-71
2023/06/24 10:17:03;;;;;;;2.90;2.70;;;;;;;;;;5072004;28;20208;-72
2023/06/24 10:19:30;;;;;;;3.88;3.08;;;;;;;;;;5073901;28;20207;-74
2023/06/24 10:21:59;;;;;;;3.30;3.00;;;;;;;;;;5069898;28;20207;-73
2023/06/24 10:24:31;;;;;;;2.95;2.72;;;;;;;;;;5075129;28;20231;-73
2023/06/24 10:27:05;;;;;;;4.95;3.40;;;;;;;;;;5071811;28;20225;-72
2023/06/24 10:29:32;;;;;;;3.67;3.38;;;;;;;;;;5070681;28;20202;-73
2023/06/24 10:32:05;;;;;;;3.60;3.40;;;;;;;;;;5074942;28;20245;-73
2023/06/24 10:34:34;;;;;;;5.00;3.45;;;;;;;;;;5073883;28;20206;-73
2023/06/24 10:37:02;;;;;;;4.63;3.22;;;;;;;;;;5074486;28;20213;-73
2023/06/24 10:39:40;;;;;;;3.22;2.92;;;;;;;;;;5075801;28;20203;-72
2023/06/24 10:42:26;;;;;;;4.00;3.15;;;;;;;;;;5073836;28;20202;-73
2023/06/24 10:44:54;;;;;;;4.43;3.22;;;;;;;;;;5076055;28;20213;-73
2023/06/24 10:47:23;;;;;;;5.13;3.40;;;;;;;;;;5065372;28;20253;-73
2023/06/24 10:49:51;;;;;;;3.47;2.97;;;;;;;;;;5073245;28;20203;-71
2023/06/24 10:52:20;;;;;;;3.13;2.90;;;;;;;;;;5070319;28;20293;-71
2023/06/24 10:54:49;;;;;;;3.33;3.03;;;;;;;;;;5071306;28;20201;-71
2023/06/24 10:57:17;;;;;;;3.97;3.40;;;;;;;;;;5077340;28;20206;-72
2023/06/24 10:59:44;;;;;;;4.00;3.30;;;;;;;;;;5074907;28;20203;-71
2023/06/24 11:02:14;;;;;;;3.65;3.28;;;;;;;;;;5077409;28;20229;-71
2023/06/24 11:04:45;;;;;;;3.42;2.88;;;;;;;;;;5068616;28;20206;-71
2023/06/24 11:07:12;;;;;;;4.45;2.90;;;;;;;;;;5078223;28;20225;-71
2023/06/24 11:09:39;;;;;;;3.13;2.92;;;;;;;;;;5077958;28;20214;-72
2023/06/24 11:12:09;;;;;;;2.90;2.60;;;;;;;;;;5071260;28;20213;-71
2023/06/24 11:14:37;;;;;;;4.57;2.92;;;;;;;;;;5072075;28;20207;-70
2023/06/24 11:17:05;;;;;;;3.83;3.28;;;;;;;;;;5072040;28;20206;-71
2023/06/24 11:19:32;;;;;;;3.63;3.15;;;;;;;;;;5068878;28;20297;-72
2023/06/24 11:22:02;;;;;;;3.40;3.10;;;;;;;;;;5070538;28;20289;-71
2023/06/24 11:24:30;;;;;;;4.20;2.90;;;;;;;;;;5074303;28;20212;-72
2023/06/24 11:26:57;;;;;;;3.33;2.72;;;;;;;;;;5074934;28;20225;-70
2023/06/24 11:29:26;;;;;;;3.33;3.00;;;;;;;;;;5074206;28;20201;-72
2023/06/24 11:31:53;;;;;;;2.85;2.60;;;;;;;;;;5075273;28;20245;-71
2023/06/24 11:34:20;;;;;;;2.90;2.70;;;;;;;;;;5070157;28;20206;-72
2023/06/24 11:36:47;;;;;;;3.17;2.78;;;;;;;;;;5073428;28;20205;-72
2023/06/24 11:39:32;;;;;;;3.05;2.85;;;;;;;;;;5078918;28;20205;-71
2023/06/24 11:41:59;;;;;;;3.33;3.13;;;;;;;;;;5075168;28;20201;-71
2023/06/24 11:44:28;;;;;;;2.90;2.70;;;;;;;;;;5077219;28;20208;-72
2023/06/24 11:47:04;;;;;;;3.20;2.90;;;;;;;;;;5076772;28;20236;-71
2023/06/24 11:49:31;;;;;;;3.00;2.80;;;;;;;;;;5077112;28;20208;-71
2023/06/24 11:51:58;;;;;;;3.95;2.70;;;;;;;;;;5079750;28;20206;-71
2023/06/24 11:54:26;;;;;;;3.00;2.70;;;;;;;;;;5079839;28;20202;-74
2023/06/24 11:56:53;;;;;;;3.35;2.65;;;;;;;;;;5081481;28;20199;-73
2023/06/24 11:59:21;;;;;;;2.97;2.67;;;;;;;;;;5079768;28;20221;-73
2023/06/24 12:01:55;;;;;;;3.78;2.60;;;;;;;;;;5076460;28;20255;-73
2023/06/24 12:04:23;;;;;;;3.05;2.55;;;;;;;;;;5072990;28;20217;-73
2023/06/24 12:06:50;;;;;;;3.08;2.88;;;;;;;;;;5076638;28;20222;-73
2023/06/24 12:09:17;;;;;;;2.47;2.28;;;;;;;;;;5081323;28;20210;-73
2023/06/24 12:11:45;;;;;;;2.90;2.70;;;;;;;;;;5074178;28;20202;-73
2023/06/24 12:14:12;;;;;;;2.83;2.63;;;;;;;;;;5076238;28;20228;-73
2023/06/24 12:16:40;;;;;;;3.13;2.92;;;;;;;;;;5073424;28;20198;-73
2023/06/24 12:19:09;;;;;;;3.15;2.95;;;;;;;;;;5075277;28;20285;-72
2023/06/24 12:21:36;;;;;;;3.63;2.80;;;;;;;;;;5073620;28;20211;-73
2023/06/24 12:24:03;;;;;;;2.92;2.72;;;;;;;;;;5076967;28;20297;-72
2023/06/24 12:26:30;;;;;;;2.80;2.60;;;;;;;;;;5072883;28;20228;-73
2023/06/24 12:28:58;;;;;;;3.00;2.80;;;;;;;;;;5079547;28;20203;-73
2023/06/24 12:31:25;;;;;;;3.40;3.10;;;;;;;;;;5072020;28;20206;-71
2023/06/24 12:33:52;;;;;;;2.90;2.65;;;;;;;;;;5076628;28;20301;-72
2023/06/24 12:36:21;;;;;;;3.17;2.80;;;;;;;;;;5065786;28;20206;-73
2023/06/24 12:38:49;;;;;;;3.13;2.60;;;;;;;;;;5066849;28;20210;-72
2023/06/24 12:41:18;;;;;;;3.25;2.95;;;;;;;;;;5070295;28;20202;-64
2023/06/24 12:43:48;;;;;;;3.25;2.92;;;;;;;;;;5071975;28;20266;-65
2023/06/24 12:46:16;;;;;;;2.92;2.72;;;;;;;;;;5068430;28;20280;-65
2023/06/24 12:48:48;;;;;;;3.95;2.75;;;;;;;;;;5078007;28;20289;-71
2023/06/24 12:51:15;;;;;;;3.03;2.72;;;;;;;;;;5078531;28;20209;-65
2023/06/24 12:53:46;;;;;;;2.80;2.60;;;;;;;;;;5074522;28;20202;-66
2023/06/24 12:56:16;;;;;;;3.15;2.88;;;;;;;;;;5075832;28;20252;-63
2023/06/24 12:58:44;;;;;;;2.88;2.67;;;;;;;;;;5079574;28;20202;-65
2023/06/24 13:01:14;;;;;;;4.57;2.92;;;;;;;;;;5078685;28;20206;-71
2023/06/24 13:03:42;;;;;;;3.17;2.88;;;;;;;;;;5077551;28;20194;-70
2023/06/24 13:06:14;;;;;;;3.80;3.08;;;;;;;;;;5076255;28;20207;-70
2023/06/24 13:08:43;;;;;;;3.10;2.80;;;;;;;;;;5074879;28;20198;-71
2023/06/24 13:11:13;;;;;;;2.60;2.40;;;;;;;;;;5073656;28;20206;-71
2023/06/24 13:13:49;;;;;;;3.25;2.70;;;;;;;;;;5073721;28;20236;-71
2023/06/24 13:16:19;;;;;;;3.33;2.42;;;;;;;;;;5070543;28;20290;-70
2023/06/24 13:18:53;;;;;;;2.67;2.58;;;;;;;;;;5079072;28;20238;-63
2023/06/24 13:21:27;;;;;;;2.72;2.53;;;;;;;;;;5074152;28;20312;-68
2023/06/24 13:23:57;;;;;;;2.72;2.53;;;;;;;;;;5081653;28;20198;-71
2023/06/24 13:26:26;;;;;;;2.92;2.53;;;;;;;;;;5080933;28;20234;-71
2023/06/24 13:28:54;;;;;;;2.90;2.70;;;;;;;;;;5084128;28;20207;-70
2023/06/24 13:31:25;;;;;;;2.88;2.55;;;;;;;;;;5085290;28;20197;-70
2023/06/24 13:33:53;;;;;;;2.78;2.58;;;;;;;;;;5080193;28;20267;-65
2023/06/24 13:36:35;;;;;;;3.05;2.85;;;;;;;;;;5082134;28;20205;-65
2023/06/24 13:39:07;;;;;;;2.95;2.70;;;;;;;;;;5073185;28;20218;-63
2023/06/24 13:41:36;;;;;;;3.88;2.90;;;;;;;;;;5075589;28;20202;-70
2023/06/24 13:44:12;;;;;;;3.47;2.60;;;;;;;;;;5073470;28;20214;-65
2023/06/24 13:46:40;;;;;;;5.78;2.75;;;;;;;;;;5072110;28;20209;-64
2023/06/24 13:51:57;;;;;;;3.00;2.70;;;;;;;;;;5075288;28;20198;-69
2023/06/24 13:54:30;;;;;;;3.15;2.72;;;;;;;;;;5074905;28;20241;-67
2023/06/24 13:57:00;;;;;;;3.00;2.70;;;;;;;;;;5077935;28;20265;-67
2023/06/24 13:59:30;;;;;;;3.00;2.80;;;;;;;;;;5073351;28;20198;-68
2023/06/24 14:01:58;;;;;;;4.22;2.60;;;;;;;;;;5080890;28;20201;-68
2023/06/24 14:04:25;;;;;;;3.17;2.97;;;;;;;;;;5078761;28;20330;-62
2023/06/24 14:06:54;;;;;;;3.28;2.97;;;;;;;;;;5076422;28;20229;-68
2023/06/24 14:09:22;;;;;;;3.42;2.83;;;;;;;;;;5075557;28;20202;-61
2023/06/24 14:11:50;;;;;;;2.90;2.70;;;;;;;;;;5072700;28;20195;-68
2023/06/24 14:14:22;;;;;;;2.80;2.60;;;;;;;;;;5075292;28;20301;-68
2023/06/24 14:16:50;;;;;;;3.38;2.90;;;;;;;;;;5072400;28;20213;-68
2023/06/24 14:19:18;;;;;;;3.03;2.85;;;;;;;;;;5068085;28;20221;-62
2023/06/24 14:21:47;;;;;;;3.00;2.80;;;;;;;;;;5077145;28;20342;-64
2023/06/24 14:24:18;;;;;;;3.00;2.80;;;;;;;;;;5074075;28;20248;-69
2023/06/24 14:26:49;;;;;;;3.00;2.75;;;;;;;;;;5079862;28;20198;-65
2023/06/24 14:29:20;;;;;;;4.00;2.90;;;;;;;;;;5073366;28;20210;-70
2023/06/24 14:31:50;;;;;;;3.10;2.90;;;;;;;;;;5068188;28;20250;-69
2023/06/24 14:34:18;;;;;;;3.78;2.78;;;;;;;;;;5074465;28;20205;-68
2023/06/24 14:36:47;;;;;;;3.45;3.00;;;;;;;;;;5075458;28;20213;-69
2023/06/24 14:39:21;;;;;;;3.20;2.90;;;;;;;;;;5074030;28;20202;-63
2023/06/24 14:41:53;;;;;;;3.10;2.90;;;;;;;;;;5074109;28;20209;-64
2023/06/24 14:44:22;;;;;;;3.13;2.92;;;;;;;;;;5080192;28;20202;-70
2023/06/24 14:46:53;;;;;;;3.53;3.15;;;;;;;;;;5074280;28;20210;-64
2023/06/24 14:49:26;;;;;;;3.17;2.97;;;;;;;;;;5068080;28;20197;-70
2023/06/24 14:51:54;;;;;;;3.00;2.80;;;;;;;;;;5075599;28;20202;-71
2023/06/24 14:54:24;;;;;;;3.22;3.03;;;;;;;;;;5080645;28;20194;-67